Time,TemperatureF,DewpointF,PressureIn,WindDirection,WindDirectionDegrees,WindSpeedMPH,WindSpeedGustMPH,Humidity,HourlyPrecipIn,Conditions,Clouds,dailyrainin,SoftwareType,DateUTC
2013-03-18 00:02:00,45.0,9.0,29.61,NW,316,2.0,-999.0,23,-99.99,,,-99.99,,2013-03-18 06:02:00,
2013-03-18 00:12:00,45.0,9.0,29.61,NW,316,2.0,-999.0,23,-99.99,,,-99.99,,2013-03-18 06:12:00,
2013-03-18 00:22:00,43.0,10.0,29.62,NW,316,1.0,-999.0,26,-99.99,,,-99.99,,2013-03-18 06:22:00,
2013-03-18 00:32:00,43.0,10.0,29.65,NW,304,4.0,-999.0,25,-99.99,,,-99.99,,2013-03-18 06:32:00,
2013-03-18 00:42:00,43.0,10.0,29.65,NW,304,4.0,-999.0,25,-99.99,,,-99.99,,2013-03-18 06:42:00,
2013-03-18 00:52:00,43.0,10.0,29.64,NW,304,3.0,-999.0,25,-99.99,,,-99.99,,2013-03-18 06:52:00,
2013-03-18 01:01:00,42.0,10.0,29.65,NW,304,3.0,-999.0,27,-99.99,,,-99.99,,2013-03-18 07:01:00,
2013-03-18 01:12:00,42.0,10.0,29.65,NW,304,3.0,-999.0,27,-99.99,,,-99.99,,2013-03-18 07:12:00,
2013-03-18 01:22:00,42.0,10.0,29.67,WNW,303,3.0,-999.0,27,-99.99,,,-99.99,,2013-03-18 07:22:00,
2013-03-18 01:31:00,42.0,10.0,29.67,WNW,302,4.0,-999.0,27,-99.99,,,-99.99,,2013-03-18 07:31:00,
2013-03-18 01:42:00,42.0,10.0,29.67,WNW,302,4.0,-999.0,27,-99.99,,,-99.99,,2013-03-18 07:42:00,
2013-03-18 01:52:00,41.0,10.0,29.66,WNW,302,5.0,-999.0,27,-99.99,,,-99.99,,2013-03-18 07:52:00,
2013-03-18 02:02:00,40.0,9.0,29.66,WNW,302,3.0,-999.0,27,-99.99,,,-99.99,,2013-03-18 08:02:00,
2013-03-18 02:11:00,40.0,9.0,29.66,WNW,302,3.0,-999.0,27,-99.99,,,-99.99,,2013-03-18 08:11:00,
2013-03-18 02:22:00,39.0,9.0,29.67,WNW,302,2.0,-999.0,29,-99.99,,,-99.99,,2013-03-18 08:22:00,
2013-03-18 02:32:00,39.0,10.0,29.68,WNW,302,0.0,-999.0,30,-99.99,,,-99.99,,2013-03-18 08:32:00,
2013-03-18 02:42:00,39.0,10.0,29.68,WNW,302,0.0,-999.0,30,-99.99,,,-99.99,,2013-03-18 08:42:00,
2013-03-18 02:52:00,38.0,10.0,29.70,WNW,302,0.0,-999.0,31,-99.99,,,-99.99,,2013-03-18 08:52:00,
2013-03-18 03:01:00,38.0,10.0,29.70,WNW,302,2.0,-999.0,31,-99.99,,,-99.99,,2013-03-18 09:01:00,
2013-03-18 03:12:00,38.0,10.0,29.70,WNW,302,2.0,-999.0,31,-99.99,,,-99.99,,2013-03-18 09:12:00,
2013-03-18 03:22:00,39.0,9.0,29.68,WNW,302,2.0,-999.0,29,-99.99,,,-99.99,,2013-03-18 09:22:00,
2013-03-18 03:32:00,36.0,10.0,29.69,WNW,302,0.0,-999.0,34,-99.99,,,-99.99,,2013-03-18 09:32:00,
2013-03-18 03:42:00,36.0,10.0,29.69,WNW,302,0.0,-999.0,34,-99.99,,,-99.99,,2013-03-18 09:42:00,
2013-03-18 03:53:00,36.0,10.0,29.69,WNW,302,0.0,-999.0,34,-99.99,,,-99.99,,2013-03-18 09:53:00,
2013-03-18 04:02:00,39.0,9.0,29.66,WNW,302,1.0,-999.0,28,-99.99,,,-99.99,,2013-03-18 10:02:00,
2013-03-18 04:12:00,39.0,9.0,29.66,WNW,302,1.0,-999.0,28,-99.99,,,-99.99,,2013-03-18 10:12:00,
2013-03-18 04:23:00,39.0,9.0,29.66,WNW,302,0.0,-999.0,28,-99.99,,,-99.99,,2013-03-18 10:23:00,
2013-03-18 04:32:00,35.0,9.0,29.70,WNW,302,0.0,-999.0,34,-99.99,,,-99.99,,2013-03-18 10:32:00,
2013-03-18 04:42:00,35.0,9.0,29.70,WNW,302,0.0,-999.0,34,-99.99,,,-99.99,,2013-03-18 10:42:00,
2013-03-18 04:53:00,34.0,11.0,29.71,WNW,302,0.0,-999.0,37,-99.99,,,-99.99,,2013-03-18 10:53:00,
2013-03-18 05:02:00,32.0,10.0,29.71,WNW,302,0.0,-999.0,40,-99.99,,,-99.99,,2013-03-18 11:02:00,
2013-03-18 05:12:00,32.0,10.0,29.71,WNW,302,0.0,-999.0,40,-99.99,,,-99.99,,2013-03-18 11:12:00,
2013-03-18 05:22:00,31.0,11.0,29.72,WNW,302,0.0,-999.0,42,-99.99,,,-99.99,,2013-03-18 11:22:00,
2013-03-18 05:31:00,32.0,10.0,29.73,WNW,302,0.0,-999.0,40,-99.99,,,-99.99,,2013-03-18 11:31:00,
2013-03-18 05:42:00,32.0,10.0,29.73,WNW,302,0.0,-999.0,40,-99.99,,,-99.99,,2013-03-18 11:42:00,
2013-03-18 05:52:00,34.0,11.0,29.72,WNW,302,0.0,-999.0,37,-99.99,,,-99.99,,2013-03-18 11:52:00,
2013-03-18 06:01:00,33.0,10.0,29.72,WNW,302,0.0,-999.0,37,-99.99,,,-99.99,,2013-03-18 12:01:00,
2013-03-18 06:12:00,33.0,10.0,29.72,WNW,302,0.0,-999.0,37,-99.99,,,-99.99,,2013-03-18 12:12:00,
2013-03-18 06:22:00,32.0,10.0,29.74,WNW,302,1.0,-999.0,39,-99.99,,,-99.99,,2013-03-18 12:22:00,
2013-03-18 06:32:00,30.0,10.0,29.78,WNW,302,0.0,-999.0,43,-99.99,,,-99.99,,2013-03-18 12:32:00,
2013-03-18 06:42:00,30.0,10.0,29.78,WNW,302,0.0,-999.0,43,-99.99,,,-99.99,,2013-03-18 12:42:00,
2013-03-18 06:52:00,29.0,10.0,29.79,WNW,302,0.0,-999.0,45,-99.99,,,-99.99,,2013-03-18 12:52:00,
2013-03-18 07:02:00,29.0,10.0,29.80,WNW,302,0.0,-999.0,45,-99.99,,,-99.99,,2013-03-18 13:02:00,
2013-03-18 07:11:00,29.0,10.0,29.80,WNW,302,0.0,-999.0,45,-99.99,,,-99.99,,2013-03-18 13:11:00,
2013-03-18 07:22:00,29.0,11.0,29.81,WNW,302,0.0,-999.0,46,-99.99,,,-99.99,,2013-03-18 13:22:00,
2013-03-18 07:32:00,28.0,10.0,29.83,WNW,302,0.0,-999.0,47,-99.99,,,-99.99,,2013-03-18 13:32:00,
2013-03-18 07:42:00,28.0,10.0,29.83,WNW,302,0.0,-999.0,47,-99.99,,,-99.99,,2013-03-18 13:42:00,
2013-03-18 07:52:00,27.0,10.0,29.85,WNW,302,0.0,-999.0,49,-99.99,,,-99.99,,2013-03-18 13:52:00,
2013-03-18 08:02:00,28.0,12.0,29.84,WNW,302,0.0,-999.0,50,-99.99,,,-99.99,,2013-03-18 14:02:00,
2013-03-18 08:11:00,28.0,12.0,29.84,WNW,302,0.0,-999.0,50,-99.99,,,-99.99,,2013-03-18 14:11:00,
2013-03-18 08:22:00,30.0,14.0,29.84,WNW,302,0.0,-999.0,50,-99.99,,,-99.99,,2013-03-18 14:22:00,
2013-03-18 08:32:00,33.0,13.0,29.85,WNW,302,0.0,-999.0,44,-99.99,,,-99.99,,2013-03-18 14:32:00,
2013-03-18 08:42:00,33.0,13.0,29.85,WNW,302,0.0,-999.0,44,-99.99,,,-99.99,,2013-03-18 14:42:00,
2013-03-18 08:52:00,34.0,14.0,29.85,WNW,302,0.0,-999.0,44,-99.99,,,-99.99,,2013-03-18 14:52:00,
2013-03-18 09:01:00,34.0,14.0,29.85,WNW,302,0.0,-999.0,44,-99.99,,,-99.99,,2013-03-18 15:01:00,
2013-03-18 09:12:00,34.0,14.0,29.85,WNW,302,0.0,-999.0,44,-99.99,,,-99.99,,2013-03-18 15:12:00,
2013-03-18 09:22:00,38.0,13.0,29.84,WNW,302,0.0,-999.0,36,-99.99,,,-99.99,,2013-03-18 15:22:00,
2013-03-18 09:32:00,38.0,13.0,29.84,WNW,302,0.0,-999.0,36,-99.99,,,-99.99,,2013-03-18 15:32:00,
2013-03-18 09:43:00,38.0,13.0,29.84,WNW,302,0.0,-999.0,36,-99.99,,,-99.99,,2013-03-18 15:43:00,
2013-03-18 09:52:00,42.0,15.0,29.86,WNW,302,1.0,-999.0,33,-99.99,,,-99.99,,2013-03-18 15:52:00,
2013-03-18 10:02:00,45.0,11.0,29.84,WNW,302,2.0,-999.0,25,-99.99,,,-99.99,,2013-03-18 16:02:00,
2013-03-18 10:12:00,45.0,11.0,29.84,WNW,302,2.0,-999.0,25,-99.99,,,-99.99,,2013-03-18 16:12:00,
2013-03-18 10:22:00,48.0,8.0,29.83,NW,326,9.0,-999.0,19,-99.99,,,-99.99,,2013-03-18 16:22:00,
2013-03-18 10:32:00,48.0,8.0,29.82,NNW,330,12.0,-999.0,19,-99.99,,,-99.99,,2013-03-18 16:32:00,
2013-03-18 10:42:00,48.0,8.0,29.82,NNW,330,12.0,-999.0,19,-99.99,,,-99.99,,2013-03-18 16:42:00,
2013-03-18 10:52:00,49.0,9.0,29.83,North,350,14.0,-999.0,19,-99.99,,,-99.99,,2013-03-18 16:52:00,
2013-03-18 11:02:00,51.0,8.0,29.81,WNW,295,8.0,-999.0,17,-99.99,,,-99.99,,2013-03-18 17:02:00,
2013-03-18 11:12:00,51.0,8.0,29.81,WNW,295,8.0,-999.0,17,-99.99,,,-99.99,,2013-03-18 17:12:00,
2013-03-18 11:22:00,51.0,9.0,29.81,WNW,294,11.0,-999.0,18,-99.99,,,-99.99,,2013-03-18 17:22:00,
2013-03-18 11:32:00,51.0,9.0,29.84,WNW,286,10.0,-999.0,18,-99.99,,,-99.99,,2013-03-18 17:32:00,
2013-03-18 11:42:00,51.0,9.0,29.84,WNW,286,10.0,-999.0,18,-99.99,,,-99.99,,2013-03-18 17:42:00,
2013-03-18 11:52:00,51.0,9.0,29.84,WNW,286,10.0,-999.0,18,-99.99,,,-99.99,,2013-03-18 17:52:00,
2013-03-18 12:01:00,53.0,8.0,29.82,WNW,282,9.0,-999.0,16,-99.99,,,-99.99,,2013-03-18 18:01:00,
2013-03-18 12:12:00,53.0,8.0,29.82,WNW,282,9.0,-999.0,16,-99.99,,,-99.99,,2013-03-18 18:12:00,
2013-03-18 12:21:00,53.0,9.0,29.82,West,268,10.0,-999.0,17,-99.99,,,-99.99,,2013-03-18 18:21:00,
2013-03-18 12:32:00,53.0,9.0,29.83,West,264,9.0,-999.0,17,-99.99,,,-99.99,,2013-03-18 18:32:00,
2013-03-18 12:42:00,53.0,9.0,29.83,West,264,9.0,-999.0,17,-99.99,,,-99.99,,2013-03-18 18:42:00,
2013-03-18 12:52:00,54.0,9.0,29.81,West,281,11.0,-999.0,16,-99.99,,,-99.99,,2013-03-18 18:52:00,
2013-03-18 13:02:00,54.0,9.0,29.81,West,281,11.0,-999.0,16,-99.99,,,-99.99,,2013-03-18 19:02:00,
2013-03-18 13:11:00,54.0,9.0,29.81,West,281,11.0,-999.0,16,-99.99,,,-99.99,,2013-03-18 19:11:00,
2013-03-18 13:22:00,54.0,9.0,29.80,WNW,285,9.0,-999.0,16,-99.99,,,-99.99,,2013-03-18 19:22:00,
2013-03-18 13:32:00,54.0,9.0,29.80,WNW,285,9.0,-999.0,16,-99.99,,,-99.99,,2013-03-18 19:32:00,
2013-03-18 13:42:00,54.0,9.0,29.80,WNW,285,9.0,-999.0,16,-99.99,,,-99.99,,2013-03-18 19:42:00,
2013-03-18 13:52:00,55.0,8.0,29.82,West,268,10.0,-999.0,15,-99.99,,,-99.99,,2013-03-18 19:52:00,
2013-03-18 14:02:00,55.0,7.0,29.80,WNW,295,6.0,-999.0,14,-99.99,,,-99.99,,2013-03-18 20:02:00,
2013-03-18 14:12:00,55.0,7.0,29.80,WNW,295,6.0,-999.0,14,-99.99,,,-99.99,,2013-03-18 20:12:00,
2013-03-18 14:22:00,56.0,4.0,29.79,WNW,283,11.0,-999.0,12,-99.99,,,-99.99,,2013-03-18 20:22:00,
2013-03-18 14:32:00,55.0,7.0,29.79,West,260,11.0,-999.0,14,-99.99,,,-99.99,,2013-03-18 20:32:00,
2013-03-18 14:42:00,55.0,7.0,29.79,West,260,11.0,-999.0,14,-99.99,,,-99.99,,2013-03-18 20:42:00,
2013-03-18 14:52:00,56.0,4.0,29.78,WSW,248,8.0,-999.0,12,-99.99,,,-99.99,,2013-03-18 20:52:00,
2013-03-18 15:02:00,56.0,4.0,29.77,West,278,15.0,-999.0,12,-99.99,,,-99.99,,2013-03-18 21:02:00,
2013-03-18 15:11:00,56.0,4.0,29.77,West,278,15.0,-999.0,12,-99.99,,,-99.99,,2013-03-18 21:11:00,
2013-03-18 15:22:00,56.0,4.0,29.77,West,266,15.0,-999.0,12,-99.99,,,-99.99,,2013-03-18 21:22:00,
2013-03-18 15:32:00,56.0,4.0,29.77,WSW,257,13.0,-999.0,12,-99.99,,,-99.99,,2013-03-18 21:32:00,
2013-03-18 15:42:00,56.0,4.0,29.77,WSW,257,13.0,-999.0,12,-99.99,,,-99.99,,2013-03-18 21:42:00,
2013-03-18 15:52:00,56.0,4.0,29.76,WSW,257,12.0,-999.0,12,-99.99,,,-99.99,,2013-03-18 21:52:00,
2013-03-18 16:03:00,57.0,5.0,29.75,West,263,10.0,-999.0,12,-99.99,,,-99.99,,2013-03-18 22:03:00,
2013-03-18 16:12:00,57.0,5.0,29.75,West,263,10.0,-999.0,12,-99.99,,,-99.99,,2013-03-18 22:12:00,
2013-03-18 16:22:00,56.0,4.0,29.75,West,269,13.0,-999.0,12,-99.99,,,-99.99,,2013-03-18 22:22:00,
2013-03-18 16:32:00,56.0,4.0,29.75,West,276,12.0,-999.0,12,-99.99,,,-99.99,,2013-03-18 22:32:00,
2013-03-18 16:42:00,56.0,4.0,29.75,West,276,12.0,-999.0,12,-99.99,,,-99.99,,2013-03-18 22:42:00,
2013-03-18 16:52:00,56.0,6.0,29.80,SW,228,12.0,-999.0,13,-99.99,,,-99.99,,2013-03-18 22:52:00,
2013-03-18 17:02:00,56.0,4.0,29.80,WSW,252,12.0,-999.0,12,-99.99,,,-99.99,,2013-03-18 23:02:00,
2013-03-18 17:12:00,56.0,4.0,29.80,WSW,252,12.0,-999.0,12,-99.99,,,-99.99,,2013-03-18 23:12:00,
2013-03-18 17:22:00,56.0,4.0,29.81,SW,223,15.0,-999.0,12,-99.99,,,-99.99,,2013-03-18 23:22:00,
2013-03-18 17:32:00,56.0,4.0,29.80,WSW,250,15.0,-999.0,12,-99.99,,,-99.99,,2013-03-18 23:32:00,
2013-03-18 17:42:00,56.0,4.0,29.80,WSW,250,15.0,-999.0,12,-99.99,,,-99.99,,2013-03-18 23:42:00,
2013-03-18 17:52:00,56.0,6.0,29.81,WSW,247,15.0,-999.0,13,-99.99,,,-99.99,,2013-03-18 23:52:00,
2013-03-18 18:02:00,55.0,5.0,29.82,West,262,15.0,-999.0,13,-99.99,,,-99.99,,2013-03-19 00:02:00,
2013-03-18 18:12:00,55.0,5.0,29.82,West,262,15.0,-999.0,13,-99.99,,,-99.99,,2013-03-19 00:12:00,
2013-03-18 18:22:00,55.0,3.0,29.82,WSW,257,12.0,-999.0,12,-99.99,,,-99.99,,2013-03-19 00:22:00,
2013-03-18 18:32:00,55.0,3.0,29.82,West,278,13.0,-999.0,12,-99.99,,,-99.99,,2013-03-19 00:32:00,
2013-03-18 18:42:00,55.0,3.0,29.82,West,278,13.0,-999.0,12,-99.99,,,-99.99,,2013-03-19 00:42:00,
2013-03-18 18:52:00,54.0,4.0,29.84,West,280,13.0,-999.0,13,-99.99,,,-99.99,,2013-03-19 00:52:00,
2013-03-18 19:02:00,54.0,3.0,29.85,West,264,11.0,-999.0,12,-99.99,,,-99.99,,2013-03-19 01:02:00,
2013-03-18 19:12:00,54.0,3.0,29.85,West,264,11.0,-999.0,12,-99.99,,,-99.99,,2013-03-19 01:12:00,
2013-03-18 19:22:00,53.0,4.0,29.87,NW,310,6.0,-999.0,13,-99.99,,,-99.99,,2013-03-19 01:22:00,
2013-03-18 19:32:00,52.0,4.0,29.87,WNW,288,7.0,-999.0,14,-99.99,,,-99.99,,2013-03-19 01:32:00,
2013-03-18 19:42:00,52.0,4.0,29.87,WNW,288,7.0,-999.0,14,-99.99,,,-99.99,,2013-03-19 01:42:00,
2013-03-18 19:52:00,51.0,4.0,29.87,WNW,289,3.0,-999.0,14,-99.99,,,-99.99,,2013-03-19 01:52:00,
2013-03-18 20:02:00,50.0,3.0,29.88,WNW,289,2.0,-999.0,14,-99.99,,,-99.99,,2013-03-19 02:02:00,
2013-03-18 20:12:00,50.0,3.0,29.88,WNW,289,2.0,-999.0,14,-99.99,,,-99.99,,2013-03-19 02:12:00,
2013-03-18 20:22:00,49.0,3.0,29.88,WNW,289,0.0,-999.0,15,-99.99,,,-99.99,,2013-03-19 02:22:00,
2013-03-18 20:32:00,47.0,3.0,29.90,WNW,289,0.0,-999.0,16,-99.99,,,-99.99,,2013-03-19 02:32:00,
2013-03-18 20:42:00,47.0,3.0,29.90,WNW,289,0.0,-999.0,16,-99.99,,,-99.99,,2013-03-19 02:42:00,
2013-03-18 20:52:00,45.0,3.0,29.85,WNW,289,0.0,-999.0,17,-99.99,,,-99.99,,2013-03-19 02:52:00,
2013-03-18 21:02:00,40.0,4.0,29.87,WNW,289,2.0,-999.0,22,-99.99,,,-99.99,,2013-03-19 03:02:00,
2013-03-18 21:32:00,36.0,4.0,29.91,WNW,289,0.0,-999.0,26,-99.99,,,-99.99,,2013-03-19 03:32:00,
2013-03-18 21:53:00,35.0,5.0,29.87,WNW,289,0.0,-999.0,28,-99.99,,,-99.99,,2013-03-19 03:53:00,
2013-03-18 22:03:00,34.0,6.0,29.87,WNW,289,3.0,-999.0,30,-99.99,,,-99.99,,2013-03-19 04:03:00,
2013-03-18 22:22:00,32.0,6.0,29.88,WNW,295,6.0,-999.0,32,-99.99,,,-99.99,,2013-03-19 04:22:00,
2013-03-18 22:33:00,31.0,7.0,29.90,WNW,295,6.0,-999.0,35,-99.99,,,-99.99,,2013-03-19 04:33:00,
2013-03-18 22:52:00,32.0,7.0,29.88,WNW,295,2.0,-999.0,34,-99.99,,,-99.99,,2013-03-19 04:52:00,
2013-03-18 23:02:00,31.0,6.0,29.90,WNW,295,2.0,-999.0,34,-99.99,,,-99.99,,2013-03-19 05:02:00,
2013-03-18 23:22:00,31.0,6.0,29.88,WNW,295,2.0,-999.0,34,-99.99,,,-99.99,,2013-03-19 05:22:00,
2013-03-18 23:32:00,31.0,6.0,29.89,WNW,295,2.0,-999.0,34,-99.99,,,-99.99,,2013-03-19 05:32:00,
2013-03-18 23:52:00,31.0,7.0,29.88,WNW,295,4.0,-999.0,36,-99.99,,,-99.99,,2013-03-19 05:52:00,